sensor_id;sensor_type;location;lat;lon;timestamp;P1;durP1;ratioP1;P2;durP2;ratioP2
20497;SDS011;10407;53.238;10.448;2022-12-11T00:00:27;21.60;;;10.17;;
20497;SDS011;10407;53.238;10.448;2022-12-11T00:02:54;21.43;;;9.73;;
20497;SDS011;10407;53.238;10.448;2022-12-11T00:05:22;19.80;;;11.77;;
20497;SDS011;10407;53.238;10.448;2022-12-11T00:07:50;14.83;;;8.53;;
20497;SDS011;10407;53.238;10.448;2022-12-11T00:13:04;19.47;;;9.90;;
20497;SDS011;10407;53.238;10.448;2022-12-11T00:15:32;20.93;;;10.10;;
20497;SDS011;10407;53.238;10.448;2022-12-11T00:17:59;17.97;;;10.10;;
20497;SDS011;10407;53.238;10.448;2022-12-11T00:20:27;18.83;;;9.80;;
20497;SDS011;10407;53.238;10.448;2022-12-11T00:22:55;20.10;;;9.90;;
20497;SDS011;10407;53.238;10.448;2022-12-11T00:25:23;17.20;;;9.57;;
20497;SDS011;10407;53.238;10.448;2022-12-11T00:27:50;17.87;;;10.00;;
20497;SDS011;10407;53.238;10.448;2022-12-11T00:30:18;18.80;;;10.10;;
20497;SDS011;10407;53.238;10.448;2022-12-11T00:32:45;19.97;;;11.13;;
20497;SDS011;10407;53.238;10.448;2022-12-11T00:35:13;16.77;;;9.90;;
20497;SDS011;10407;53.238;10.448;2022-12-11T00:37:40;19.47;;;10.50;;
20497;SDS011;10407;53.238;10.448;2022-12-11T00:40:08;20.93;;;10.87;;
20497;SDS011;10407;53.238;10.448;2022-12-11T00:42:36;22.23;;;9.97;;
20497;SDS011;10407;53.238;10.448;2022-12-11T00:45:04;17.43;;;9.40;;
20497;SDS011;10407;53.238;10.448;2022-12-11T00:47:32;18.90;;;10.40;;
20497;SDS011;10407;53.238;10.448;2022-12-11T00:49:59;18.73;;;10.00;;
20497;SDS011;10407;53.238;10.448;2022-12-11T00:52:27;19.10;;;11.13;;
20497;SDS011;10407;53.238;10.448;2022-12-11T00:54:54;18.50;;;10.47;;
20497;SDS011;10407;53.238;10.448;2022-12-11T00:57:22;19.60;;;11.47;;
20497;SDS011;10407;53.238;10.448;2022-12-11T00:59:49;21.07;;;11.50;;
20497;SDS011;10407;53.238;10.448;2022-12-11T01:02:17;20.30;;;10.00;;
20497;SDS011;10407;53.238;10.448;2022-12-11T01:04:44;17.60;;;9.30;;
20497;SDS011;10407;53.238;10.448;2022-12-11T01:07:12;20.03;;;10.27;;
20497;SDS011;10407;53.238;10.448;2022-12-11T01:09:39;15.90;;;9.43;;
20497;SDS011;10407;53.238;10.448;2022-12-11T01:12:25;17.77;;;9.43;;
20497;SDS011;10407;53.238;10.448;2022-12-11T01:14:53;18.67;;;9.73;;
20497;SDS011;10407;53.238;10.448;2022-12-11T01:17:21;18.50;;;9.50;;
20497;SDS011;10407;53.238;10.448;2022-12-11T01:19:48;16.60;;;8.97;;
20497;SDS011;10407;53.238;10.448;2022-12-11T01:22:15;18.57;;;10.40;;
20497;SDS011;10407;53.238;10.448;2022-12-11T01:24:43;16.30;;;9.00;;
20497;SDS011;10407;53.238;10.448;2022-12-11T01:27:10;15.23;;;9.13;;
20497;SDS011;10407;53.238;10.448;2022-12-11T01:29:38;18.80;;;10.17;;
20497;SDS011;10407;53.238;10.448;2022-12-11T01:32:06;19.77;;;11.13;;
20497;SDS011;10407;53.238;10.448;2022-12-11T01:34:33;18.93;;;9.50;;
20497;SDS011;10407;53.238;10.448;2022-12-11T01:37:00;19.00;;;8.90;;
20497;SDS011;10407;53.238;10.448;2022-12-11T01:39:28;16.57;;;9.10;;
20497;SDS011;10407;53.238;10.448;2022-12-11T01:41:57;19.77;;;9.93;;
20497;SDS011;10407;53.238;10.448;2022-12-11T01:46:56;17.77;;;10.00;;
20497;SDS011;10407;53.238;10.448;2022-12-11T01:49:24;20.50;;;10.60;;
20497;SDS011;10407;53.238;10.448;2022-12-11T01:51:57;18.73;;;9.73;;
20497;SDS011;10407;53.238;10.448;2022-12-11T01:54:26;18.23;;;11.13;;
20497;SDS011;10407;53.238;10.448;2022-12-11T01:56:56;21.00;;;10.60;;
20497;SDS011;10407;53.238;10.448;2022-12-11T01:59:26;16.67;;;9.70;;
20497;SDS011;10407;53.238;10.448;2022-12-11T02:01:58;14.47;;;8.70;;
20497;SDS011;10407;53.238;10.448;2022-12-11T02:04:29;20.07;;;10.53;;
20497;SDS011;10407;53.238;10.448;2022-12-11T02:06:58;19.50;;;10.63;;
20497;SDS011;10407;53.238;10.448;2022-12-11T02:09:27;16.10;;;9.80;;
20497;SDS011;10407;53.238;10.448;2022-12-11T02:20:30;18.17;;;9.33;;
20497;SDS011;10407;53.238;10.448;2022-12-11T02:23:14;21.83;;;10.23;;
20497;SDS011;10407;53.238;10.448;2022-12-11T02:25:46;15.60;;;10.10;;
20497;SDS011;10407;53.238;10.448;2022-12-11T02:31:01;19.60;;;10.73;;
20497;SDS011;10407;53.238;10.448;2022-12-11T02:33:35;17.37;;;8.87;;
20497;SDS011;10407;53.238;10.448;2022-12-11T02:36:03;16.47;;;9.63;;
20497;SDS011;10407;53.238;10.448;2022-12-11T02:38:34;19.67;;;8.37;;
20497;SDS011;10407;53.238;10.448;2022-12-11T02:41:04;20.50;;;11.00;;
20497;SDS011;10407;53.238;10.448;2022-12-11T02:43:34;17.83;;;10.10;;
20497;SDS011;10407;53.238;10.448;2022-12-11T02:46:04;20.10;;;9.77;;
20497;SDS011;10407;53.238;10.448;2022-12-11T02:48:33;17.77;;;9.00;;
20497;SDS011;10407;53.238;10.448;2022-12-11T02:51:02;14.57;;;8.83;;
20497;SDS011;10407;53.238;10.448;2022-12-11T02:53:34;16.13;;;8.70;;
20497;SDS011;10407;53.238;10.448;2022-12-11T02:56:11;15.70;;;9.37;;
20497;SDS011;10407;53.238;10.448;2022-12-11T02:58:47;16.07;;;7.70;;
20497;SDS011;10407;53.238;10.448;2022-12-11T03:01:17;19.77;;;10.30;;
20497;SDS011;10407;53.238;10.448;2022-12-11T03:03:44;14.70;;;8.50;;
20497;SDS011;10407;53.238;10.448;2022-12-11T03:06:12;16.40;;;9.90;;
20497;SDS011;10407;53.238;10.448;2022-12-11T03:08:43;15.90;;;8.80;;
20497;SDS011;10407;53.238;10.448;2022-12-11T03:11:11;22.10;;;9.80;;
20497;SDS011;10407;53.238;10.448;2022-12-11T03:13:39;15.57;;;9.23;;
20497;SDS011;10407;53.238;10.448;2022-12-11T03:21:57;16.70;;;10.10;;
20497;SDS011;10407;53.238;10.448;2022-12-11T03:24:29;23.33;;;10.40;;
20497;SDS011;10407;53.238;10.448;2022-12-11T03:27:00;17.53;;;9.70;;
20497;SDS011;10407;53.238;10.448;2022-12-11T03:29:40;19.07;;;9.63;;
20497;SDS011;10407;53.238;10.448;2022-12-11T03:32:05;18.03;;;10.10;;
20497;SDS011;10407;53.238;10.448;2022-12-11T03:37:12;20.20;;;10.30;;
20497;SDS011;10407;53.238;10.448;2022-12-11T03:39:42;16.37;;;9.10;;
20497;SDS011;10407;53.238;10.448;2022-12-11T03:42:12;16.70;;;9.93;;
20497;SDS011;10407;53.238;10.448;2022-12-11T03:44:42;18.70;;;11.20;;
20497;SDS011;10407;53.238;10.448;2022-12-11T03:47:12;18.20;;;10.07;;
20497;SDS011;10407;53.238;10.448;2022-12-11T03:49:42;17.60;;;9.07;;
20497;SDS011;10407;53.238;10.448;2022-12-11T03:52:11;15.40;;;9.20;;
20497;SDS011;10407;53.238;10.448;2022-12-11T03:54:41;21.57;;;10.67;;
20497;SDS011;10407;53.238;10.448;2022-12-11T03:57:13;19.30;;;10.20;;
20497;SDS011;10407;53.238;10.448;2022-12-11T03:59:42;18.67;;;10.07;;
20497;SDS011;10407;53.238;10.448;2022-12-11T04:02:10;19.77;;;10.60;;
20497;SDS011;10407;53.238;10.448;2022-12-11T04:04:38;18.83;;;10.10;;
20497;SDS011;10407;53.238;10.448;2022-12-11T04:07:07;17.50;;;10.33;;
20497;SDS011;10407;53.238;10.448;2022-12-11T04:09:35;16.50;;;8.97;;
20497;SDS011;10407;53.238;10.448;2022-12-11T04:12:02;17.03;;;9.53;;
20497;SDS011;10407;53.238;10.448;2022-12-11T04:14:30;16.10;;;8.83;;
20497;SDS011;10407;53.238;10.448;2022-12-11T04:17:15;15.57;;;9.97;;
20497;SDS011;10407;53.238;10.448;2022-12-11T04:19:45;14.53;;;8.13;;
20497;SDS011;10407;53.238;10.448;2022-12-11T04:22:30;18.97;;;9.97;;
20497;SDS011;10407;53.238;10.448;2022-12-11T04:25:16;18.77;;;10.63;;
20497;SDS011;10407;53.238;10.448;2022-12-11T04:27:44;17.67;;;9.30;;
20497;SDS011;10407;53.238;10.448;2022-12-11T04:30:15;17.67;;;9.60;;
20497;SDS011;10407;53.238;10.448;2022-12-11T04:32:45;18.90;;;9.40;;
20497;SDS011;10407;53.238;10.448;2022-12-11T04:35:13;15.90;;;9.40;;
20497;SDS011;10407;53.238;10.448;2022-12-11T04:37:41;18.27;;;8.60;;
20497;SDS011;10407;53.238;10.448;2022-12-11T04:40:10;19.53;;;9.10;;
20497;SDS011;10407;53.238;10.448;2022-12-11T04:42:39;16.07;;;9.60;;
20497;SDS011;10407;53.238;10.448;2022-12-11T04:45:07;16.23;;;8.93;;
20497;SDS011;10407;53.238;10.448;2022-12-11T04:47:36;17.00;;;9.83;;
20497;SDS011;10407;53.238;10.448;2022-12-11T04:50:05;14.07;;;8.57;;
20497;SDS011;10407;53.238;10.448;2022-12-11T04:52:35;22.30;;;11.93;;
20497;SDS011;10407;53.238;10.448;2022-12-11T04:55:03;20.90;;;11.40;;
20497;SDS011;10407;53.238;10.448;2022-12-11T04:57:31;16.43;;;10.43;;
20497;SDS011;10407;53.238;10.448;2022-12-11T05:00:00;19.70;;;10.10;;
20497;SDS011;10407;53.238;10.448;2022-12-11T05:02:29;18.10;;;9.70;;
20497;SDS011;10407;53.238;10.448;2022-12-11T05:04:58;16.37;;;9.50;;
20497;SDS011;10407;53.238;10.448;2022-12-11T05:07:26;16.10;;;9.70;;
20497;SDS011;10407;53.238;10.448;2022-12-11T05:09:53;15.10;;;8.63;;
20497;SDS011;10407;53.238;10.448;2022-12-11T05:12:21;21.00;;;10.20;;
20497;SDS011;10407;53.238;10.448;2022-12-11T05:14:51;15.13;;;9.70;;
20497;SDS011;10407;53.238;10.448;2022-12-11T05:17:20;15.57;;;8.37;;
20497;SDS011;10407;53.238;10.448;2022-12-11T05:19:48;16.93;;;9.47;;
20497;SDS011;10407;53.238;10.448;2022-12-11T05:22:17;14.30;;;9.43;;
20497;SDS011;10407;53.238;10.448;2022-12-11T05:24:45;20.30;;;9.50;;
20497;SDS011;10407;53.238;10.448;2022-12-11T05:27:12;12.63;;;7.80;;
20497;SDS011;10407;53.238;10.448;2022-12-11T05:29:40;17.90;;;9.80;;
20497;SDS011;10407;53.238;10.448;2022-12-11T05:32:07;15.20;;;8.77;;
20497;SDS011;10407;53.238;10.448;2022-12-11T05:34:35;18.40;;;9.47;;
20497;SDS011;10407;53.238;10.448;2022-12-11T05:37:02;24.60;;;10.07;;
20497;SDS011;10407;53.238;10.448;2022-12-11T05:39:30;15.93;;;9.93;;
20497;SDS011;10407;53.238;10.448;2022-12-11T05:41:57;14.73;;;9.23;;
20497;SDS011;10407;53.238;10.448;2022-12-11T05:44:25;15.63;;;8.50;;
20497;SDS011;10407;53.238;10.448;2022-12-11T05:46:52;15.40;;;8.87;;
20497;SDS011;10407;53.238;10.448;2022-12-11T05:49:20;18.20;;;9.13;;
20497;SDS011;10407;53.238;10.448;2022-12-11T05:51:48;15.90;;;8.90;;
20497;SDS011;10407;53.238;10.448;2022-12-11T05:54:15;16.33;;;8.80;;
20497;SDS011;10407;53.238;10.448;2022-12-11T05:56:43;17.37;;;9.87;;
20497;SDS011;10407;53.238;10.448;2022-12-11T05:59:11;17.40;;;8.60;;
20497;SDS011;10407;53.238;10.448;2022-12-11T06:01:39;16.73;;;8.37;;
20497;SDS011;10407;53.238;10.448;2022-12-11T06:04:08;17.10;;;9.60;;
20497;SDS011;10407;53.238;10.448;2022-12-11T06:06:37;15.47;;;8.70;;
20497;SDS011;10407;53.238;10.448;2022-12-11T06:09:05;14.63;;;8.20;;
20497;SDS011;10407;53.238;10.448;2022-12-11T06:11:33;13.93;;;8.40;;
20497;SDS011;10407;53.238;10.448;2022-12-11T06:14:01;17.77;;;9.67;;
20497;SDS011;10407;53.238;10.448;2022-12-11T06:16:30;14.03;;;7.80;;
20497;SDS011;10407;53.238;10.448;2022-12-11T06:18:57;15.97;;;8.40;;
20497;SDS011;10407;53.238;10.448;2022-12-11T06:21:30;17.07;;;9.17;;
20497;SDS011;10407;53.238;10.448;2022-12-11T06:23:59;18.37;;;9.97;;
20497;SDS011;10407;53.238;10.448;2022-12-11T06:26:28;13.10;;;8.50;;
20497;SDS011;10407;53.238;10.448;2022-12-11T06:28:56;17.97;;;9.57;;
20497;SDS011;10407;53.238;10.448;2022-12-11T06:31:24;19.83;;;8.57;;
20497;SDS011;10407;53.238;10.448;2022-12-11T06:33:52;17.47;;;9.30;;
20497;SDS011;10407;53.238;10.448;2022-12-11T06:36:21;16.37;;;9.00;;
20497;SDS011;10407;53.238;10.448;2022-12-11T06:38:50;17.63;;;9.80;;
20497;SDS011;10407;53.238;10.448;2022-12-11T06:41:18;18.03;;;10.00;;
20497;SDS011;10407;53.238;10.448;2022-12-11T06:43:45;17.00;;;9.93;;
20497;SDS011;10407;53.238;10.448;2022-12-11T06:46:14;19.03;;;9.47;;
20497;SDS011;10407;53.238;10.448;2022-12-11T06:48:43;13.47;;;9.00;;
20497;SDS011;10407;53.238;10.448;2022-12-11T06:51:13;19.80;;;9.97;;
20497;SDS011;10407;53.238;10.448;2022-12-11T06:53:43;19.20;;;10.10;;
20497;SDS011;10407;53.238;10.448;2022-12-11T06:56:11;15.30;;;9.63;;
20497;SDS011;10407;53.238;10.448;2022-12-11T06:58:41;15.83;;;10.00;;
20497;SDS011;10407;53.238;10.448;2022-12-11T07:01:18;16.60;;;8.37;;
20497;SDS011;10407;53.238;10.448;2022-12-11T07:03:43;17.12;;;8.83;;
20497;SDS011;10407;53.238;10.448;2022-12-11T07:06:11;18.43;;;10.10;;
20497;SDS011;10407;53.238;10.448;2022-12-11T07:08:39;16.27;;;9.40;;
20497;SDS011;10407;53.238;10.448;2022-12-11T07:11:08;17.00;;;9.00;;
20497;SDS011;10407;53.238;10.448;2022-12-11T07:13:38;18.60;;;10.30;;
20497;SDS011;10407;53.238;10.448;2022-12-11T07:16:07;21.80;;;11.40;;
20497;SDS011;10407;53.238;10.448;2022-12-11T07:18:36;18.37;;;8.80;;
20497;SDS011;10407;53.238;10.448;2022-12-11T07:21:06;15.50;;;9.47;;
20497;SDS011;10407;53.238;10.448;2022-12-11T07:23:35;19.82;;;9.55;;
20497;SDS011;10407;53.238;10.448;2022-12-11T07:26:03;18.80;;;11.18;;
20497;SDS011;10407;53.238;10.448;2022-12-11T07:28:32;18.73;;;10.80;;
20497;SDS011;10407;53.238;10.448;2022-12-11T07:31:04;22.13;;;11.87;;
20497;SDS011;10407;53.238;10.448;2022-12-11T07:33:34;20.13;;;9.60;;
20497;SDS011;10407;53.238;10.448;2022-12-11T07:36:05;20.00;;;11.07;;
20497;SDS011;10407;53.238;10.448;2022-12-11T07:38:35;18.27;;;9.93;;
20497;SDS011;10407;53.238;10.448;2022-12-11T07:41:03;18.07;;;10.30;;
20497;SDS011;10407;53.238;10.448;2022-12-11T07:43:32;18.53;;;9.63;;
20497;SDS011;10407;53.238;10.448;2022-12-11T07:46:06;19.30;;;10.45;;
20497;SDS011;10407;53.238;10.448;2022-12-11T07:48:33;19.90;;;10.33;;
20497;SDS011;10407;53.238;10.448;2022-12-11T07:51:17;19.33;;;11.40;;
20497;SDS011;10407;53.238;10.448;2022-12-11T07:53:49;19.50;;;11.30;;
20497;SDS011;10407;53.238;10.448;2022-12-11T07:56:17;20.43;;;12.53;;
20497;SDS011;10407;53.238;10.448;2022-12-11T07:58:45;15.80;;;9.37;;
20497;SDS011;10407;53.238;10.448;2022-12-11T08:01:17;19.33;;;10.40;;
20497;SDS011;10407;53.238;10.448;2022-12-11T08:03:52;18.37;;;11.10;;
20497;SDS011;10407;53.238;10.448;2022-12-11T08:06:25;19.30;;;11.10;;
20497;SDS011;10407;53.238;10.448;2022-12-11T08:08:55;19.10;;;11.70;;
20497;SDS011;10407;53.238;10.448;2022-12-11T08:11:24;22.50;;;11.13;;
20497;SDS011;10407;53.238;10.448;2022-12-11T08:13:53;19.40;;;10.70;;
20497;SDS011;10407;53.238;10.448;2022-12-11T08:16:21;26.23;;;11.50;;
20497;SDS011;10407;53.238;10.448;2022-12-11T08:18:49;21.30;;;11.50;;
20497;SDS011;10407;53.238;10.448;2022-12-11T08:21:18;20.10;;;10.50;;
20497;SDS011;10407;53.238;10.448;2022-12-11T08:23:47;19.30;;;10.73;;
20497;SDS011;10407;53.238;10.448;2022-12-11T08:26:18;18.03;;;10.20;;
20497;SDS011;10407;53.238;10.448;2022-12-11T08:28:49;19.23;;;11.20;;
20497;SDS011;10407;53.238;10.448;2022-12-11T08:31:17;33.20;;;16.53;;
20497;SDS011;10407;53.238;10.448;2022-12-11T08:33:47;54.97;;;28.87;;
20497;SDS011;10407;53.238;10.448;2022-12-11T08:36:20;26.60;;;13.97;;
20497;SDS011;10407;53.238;10.448;2022-12-11T08:38:46;25.60;;;12.50;;
20497;SDS011;10407;53.238;10.448;2022-12-11T08:41:15;29.70;;;14.70;;
20497;SDS011;10407;53.238;10.448;2022-12-11T08:44:03;24.90;;;14.13;;
20497;SDS011;10407;53.238;10.448;2022-12-11T08:46:31;22.57;;;12.63;;
20497;SDS011;10407;53.238;10.448;2022-12-11T08:49:00;24.97;;;13.70;;
20497;SDS011;10407;53.238;10.448;2022-12-11T08:51:27;25.60;;;13.77;;
20497;SDS011;10407;53.238;10.448;2022-12-11T08:53:56;31.83;;;15.23;;
20497;SDS011;10407;53.238;10.448;2022-12-11T08:56:25;25.57;;;14.30;;
20497;SDS011;10407;53.238;10.448;2022-12-11T08:58:54;25.43;;;12.90;;
20497;SDS011;10407;53.238;10.448;2022-12-11T09:01:22;27.83;;;14.27;;
20497;SDS011;10407;53.238;10.448;2022-12-11T09:03:51;23.97;;;15.07;;
20497;SDS011;10407;53.238;10.448;2022-12-11T09:06:20;28.87;;;16.30;;
20497;SDS011;10407;53.238;10.448;2022-12-11T09:08:50;27.93;;;13.90;;
20497;SDS011;10407;53.238;10.448;2022-12-11T09:11:20;23.73;;;13.20;;
20497;SDS011;10407;53.238;10.448;2022-12-11T09:13:49;25.03;;;13.80;;
20497;SDS011;10407;53.238;10.448;2022-12-11T09:16:18;26.93;;;13.83;;
20497;SDS011;10407;53.238;10.448;2022-12-11T09:18:48;26.67;;;14.03;;
20497;SDS011;10407;53.238;10.448;2022-12-11T09:21:19;26.90;;;14.03;;
20497;SDS011;10407;53.238;10.448;2022-12-11T09:23:48;16.83;;;9.30;;
20497;SDS011;10407;53.238;10.448;2022-12-11T09:26:17;15.60;;;9.77;;
20497;SDS011;10407;53.238;10.448;2022-12-11T09:28:46;13.97;;;8.90;;
20497;SDS011;10407;53.238;10.448;2022-12-11T09:31:19;15.83;;;9.00;;
20497;SDS011;10407;53.238;10.448;2022-12-11T09:33:49;16.20;;;10.00;;
20497;SDS011;10407;53.238;10.448;2022-12-11T09:36:17;19.70;;;11.67;;
20497;SDS011;10407;53.238;10.448;2022-12-11T09:38:45;21.40;;;10.97;;
20497;SDS011;10407;53.238;10.448;2022-12-11T09:44:16;16.57;;;9.40;;
20497;SDS011;10407;53.238;10.448;2022-12-11T09:46:45;16.97;;;9.80;;
20497;SDS011;10407;53.238;10.448;2022-12-11T09:49:18;15.10;;;8.63;;
20497;SDS011;10407;53.238;10.448;2022-12-11T09:51:50;12.23;;;7.70;;
20497;SDS011;10407;53.238;10.448;2022-12-11T09:54:15;13.13;;;8.17;;
20497;SDS011;10407;53.238;10.448;2022-12-11T09:56:57;16.73;;;8.43;;
20497;SDS011;10407;53.238;10.448;2022-12-11T10:02:21;13.53;;;8.03;;
20497;SDS011;10407;53.238;10.448;2022-12-11T10:05:03;15.77;;;9.20;;
20497;SDS011;10407;53.238;10.448;2022-12-11T10:07:37;14.63;;;9.13;;
20497;SDS011;10407;53.238;10.448;2022-12-11T10:16:25;16.30;;;9.10;;
20497;SDS011;10407;53.238;10.448;2022-12-11T10:18:43;15.63;;;9.13;;
20497;SDS011;10407;53.238;10.448;2022-12-11T10:21:12;15.17;;;8.73;;
20497;SDS011;10407;53.238;10.448;2022-12-11T10:23:45;12.60;;;8.57;;
20497;SDS011;10407;53.238;10.448;2022-12-11T10:26:19;14.47;;;9.43;;
20497;SDS011;10407;53.238;10.448;2022-12-11T10:28:48;16.83;;;9.20;;
20497;SDS011;10407;53.238;10.448;2022-12-11T10:31:17;13.87;;;8.70;;
20497;SDS011;10407;53.238;10.448;2022-12-11T10:33:54;37.77;;;19.10;;
20497;SDS011;10407;53.238;10.448;2022-12-11T10:36:31;18.73;;;11.23;;
20497;SDS011;10407;53.238;10.448;2022-12-11T10:39:10;16.30;;;9.63;;
20497;SDS011;10407;53.238;10.448;2022-12-11T10:41:41;19.47;;;9.47;;
20497;SDS011;10407;53.238;10.448;2022-12-11T10:44:18;17.10;;;10.00;;
20497;SDS011;10407;53.238;10.448;2022-12-11T10:46:59;18.37;;;9.70;;
20497;SDS011;10407;53.238;10.448;2022-12-11T10:49:31;19.53;;;10.97;;
20497;SDS011;10407;53.238;10.448;2022-12-11T10:52:01;14.53;;;9.03;;
20497;SDS011;10407;53.238;10.448;2022-12-11T10:54:42;17.33;;;9.47;;
20497;SDS011;10407;53.238;10.448;2022-12-11T10:57:13;14.70;;;8.43;;
20497;SDS011;10407;53.238;10.448;2022-12-11T10:59:45;13.67;;;7.90;;
20497;SDS011;10407;53.238;10.448;2022-12-11T11:02:20;16.97;;;8.37;;
20497;SDS011;10407;53.238;10.448;2022-12-11T11:04:54;17.63;;;8.43;;
20497;SDS011;10407;53.238;10.448;2022-12-11T11:07:27;13.10;;;8.20;;
20497;SDS011;10407;53.238;10.448;2022-12-11T11:10:04;13.83;;;8.73;;
20497;SDS011;10407;53.238;10.448;2022-12-11T11:12:39;17.10;;;9.17;;
20497;SDS011;10407;53.238;10.448;2022-12-11T11:15:13;18.03;;;9.47;;
20497;SDS011;10407;53.238;10.448;2022-12-11T11:17:50;15.93;;;8.77;;
20497;SDS011;10407;53.238;10.448;2022-12-11T11:20:21;13.77;;;8.27;;
20497;SDS011;10407;53.238;10.448;2022-12-11T11:22:47;17.30;;;9.47;;
20497;SDS011;10407;53.238;10.448;2022-12-11T11:25:18;16.13;;;9.87;;
20497;SDS011;10407;53.238;10.448;2022-12-11T11:27:49;18.83;;;9.20;;
20497;SDS011;10407;53.238;10.448;2022-12-11T11:30:22;15.57;;;9.57;;
20497;SDS011;10407;53.238;10.448;2022-12-11T11:33:15;17.27;;;10.30;;
20497;SDS011;10407;53.238;10.448;2022-12-11T11:35:31;21.10;;;10.00;;
20497;SDS011;10407;53.238;10.448;2022-12-11T11:45:58;17.53;;;9.10;;
20497;SDS011;10407;53.238;10.448;2022-12-11T11:51:26;21.80;;;9.97;;
20497;SDS011;10407;53.238;10.448;2022-12-11T11:53:55;17.70;;;9.73;;
20497;SDS011;10407;53.238;10.448;2022-12-11T11:56:26;15.10;;;10.30;;
20497;SDS011;10407;53.238;10.448;2022-12-11T12:01:56;19.90;;;10.00;;
20497;SDS011;10407;53.238;10.448;2022-12-11T12:04:25;17.93;;;11.00;;
20497;SDS011;10407;53.238;10.448;2022-12-11T12:09:54;18.67;;;11.40;;
20497;SDS011;10407;53.238;10.448;2022-12-11T12:17:53;21.00;;;10.27;;
20497;SDS011;10407;53.238;10.448;2022-12-11T12:20:41;16.77;;;9.17;;
20497;SDS011;10407;53.238;10.448;2022-12-11T12:23:34;19.37;;;10.30;;
20497;SDS011;10407;53.238;10.448;2022-12-11T12:26:14;19.90;;;10.30;;
20497;SDS011;10407;53.238;10.448;2022-12-11T12:34:38;18.60;;;10.00;;
20497;SDS011;10407;53.238;10.448;2022-12-11T12:37:21;19.43;;;11.10;;
20497;SDS011;10407;53.238;10.448;2022-12-11T12:40:50;31.93;;;15.47;;
20497;SDS011;10407;53.238;10.448;2022-12-11T12:48:15;18.27;;;9.43;;
20497;SDS011;10407;53.238;10.448;2022-12-11T12:50:43;17.30;;;10.87;;
20497;SDS011;10407;53.238;10.448;2022-12-11T12:53:19;19.47;;;10.40;;
20497;SDS011;10407;53.238;10.448;2022-12-11T12:55:44;21.67;;;11.57;;
20497;SDS011;10407;53.238;10.448;2022-12-11T12:58:24;17.97;;;10.77;;
20497;SDS011;10407;53.238;10.448;2022-12-11T13:00:54;23.20;;;11.90;;
20497;SDS011;10407;53.238;10.448;2022-12-11T13:03:48;22.30;;;10.80;;
20497;SDS011;10407;53.238;10.448;2022-12-11T13:06:26;22.10;;;11.60;;
20497;SDS011;10407;53.238;10.448;2022-12-11T13:09:21;20.20;;;11.90;;
20497;SDS011;10407;53.238;10.448;2022-12-11T13:11:52;22.03;;;11.60;;
20497;SDS011;10407;53.238;10.448;2022-12-11T13:14:25;21.10;;;10.53;;
20497;SDS011;10407;53.238;10.448;2022-12-11T13:17:21;20.00;;;10.53;;
20497;SDS011;10407;53.238;10.448;2022-12-11T13:19:50;20.00;;;11.40;;
20497;SDS011;10407;53.238;10.448;2022-12-11T13:25:23;24.93;;;14.27;;
20497;SDS011;10407;53.238;10.448;2022-12-11T13:27:52;29.13;;;15.43;;
20497;SDS011;10407;53.238;10.448;2022-12-11T13:30:22;30.77;;;14.83;;
20497;SDS011;10407;53.238;10.448;2022-12-11T13:35:31;23.60;;;12.00;;
20497;SDS011;10407;53.238;10.448;2022-12-11T13:38:02;23.70;;;12.63;;
20497;SDS011;10407;53.238;10.448;2022-12-11T13:40:41;22.97;;;12.73;;
20497;SDS011;10407;53.238;10.448;2022-12-11T13:43:26;25.97;;;13.40;;
20497;SDS011;10407;53.238;10.448;2022-12-11T13:45:59;24.00;;;12.80;;
20497;SDS011;10407;53.238;10.448;2022-12-11T13:48:36;21.23;;;11.97;;
20497;SDS011;10407;53.238;10.448;2022-12-11T13:51:18;25.67;;;12.30;;
20497;SDS011;10407;53.238;10.448;2022-12-11T13:53:47;22.63;;;12.40;;
20497;SDS011;10407;53.238;10.448;2022-12-11T13:56:15;21.87;;;11.17;;
20497;SDS011;10407;53.238;10.448;2022-12-11T13:58:47;22.13;;;12.10;;
20497;SDS011;10407;53.238;10.448;2022-12-11T14:01:18;22.00;;;11.73;;
20497;SDS011;10407;53.238;10.448;2022-12-11T14:03:56;23.10;;;12.20;;
20497;SDS011;10407;53.238;10.448;2022-12-11T14:06:32;21.57;;;11.37;;
20497;SDS011;10407;53.238;10.448;2022-12-11T14:09:02;23.10;;;12.63;;
20497;SDS011;10407;53.238;10.448;2022-12-11T14:11:35;22.23;;;12.33;;
20497;SDS011;10407;53.238;10.448;2022-12-11T14:14:06;24.57;;;12.87;;
20497;SDS011;10407;53.238;10.448;2022-12-11T14:16:34;24.90;;;13.73;;
20497;SDS011;10407;53.238;10.448;2022-12-11T14:19:04;22.57;;;11.93;;
20497;SDS011;10407;53.238;10.448;2022-12-11T14:21:32;23.00;;;12.17;;
20497;SDS011;10407;53.238;10.448;2022-12-11T14:24:02;19.77;;;12.27;;
20497;SDS011;10407;53.238;10.448;2022-12-11T14:26:32;17.90;;;11.30;;
20497;SDS011;10407;53.238;10.448;2022-12-11T14:29:03;29.70;;;17.53;;
20497;SDS011;10407;53.238;10.448;2022-12-11T14:31:36;22.37;;;11.90;;
20497;SDS011;10407;53.238;10.448;2022-12-11T14:34:12;21.27;;;12.00;;
20497;SDS011;10407;53.238;10.448;2022-12-11T14:36:50;22.53;;;11.80;;
20497;SDS011;10407;53.238;10.448;2022-12-11T14:39:24;25.10;;;12.87;;
20497;SDS011;10407;53.238;10.448;2022-12-11T14:41:55;26.30;;;12.33;;
20497;SDS011;10407;53.238;10.448;2022-12-11T14:44:49;24.03;;;10.97;;
20497;SDS011;10407;53.238;10.448;2022-12-11T14:47:24;23.97;;;12.13;;
20497;SDS011;10407;53.238;10.448;2022-12-11T14:50:07;21.40;;;12.17;;
20497;SDS011;10407;53.238;10.448;2022-12-11T14:52:43;20.23;;;11.30;;
20497;SDS011;10407;53.238;10.448;2022-12-11T14:55:21;21.40;;;12.13;;
20497;SDS011;10407;53.238;10.448;2022-12-11T14:57:51;20.63;;;11.70;;
20497;SDS011;10407;53.238;10.448;2022-12-11T15:00:30;21.60;;;11.47;;
20497;SDS011;10407;53.238;10.448;2022-12-11T15:03:02;24.37;;;13.20;;
20497;SDS011;10407;53.238;10.448;2022-12-11T15:05:31;21.60;;;11.50;;
20497;SDS011;10407;53.238;10.448;2022-12-11T15:08:01;21.73;;;11.37;;
20497;SDS011;10407;53.238;10.448;2022-12-11T15:10:38;22.03;;;11.90;;
20497;SDS011;10407;53.238;10.448;2022-12-11T15:13:10;24.10;;;12.13;;
20497;SDS011;10407;53.238;10.448;2022-12-11T15:15:43;25.90;;;11.07;;
20497;SDS011;10407;53.238;10.448;2022-12-11T15:18:18;22.83;;;12.13;;
20497;SDS011;10407;53.238;10.448;2022-12-11T15:20:52;30.63;;;15.50;;
20497;SDS011;10407;53.238;10.448;2022-12-11T15:23:21;21.50;;;11.97;;
20497;SDS011;10407;53.238;10.448;2022-12-11T15:25:55;26.13;;;14.47;;
20497;SDS011;10407;53.238;10.448;2022-12-11T15:28:35;24.37;;;12.23;;
20497;SDS011;10407;53.238;10.448;2022-12-11T15:31:05;30.00;;;15.37;;
20497;SDS011;10407;53.238;10.448;2022-12-11T15:33:43;33.67;;;16.70;;
20497;SDS011;10407;53.238;10.448;2022-12-11T15:36:05;22.60;;;12.37;;
20497;SDS011;10407;53.238;10.448;2022-12-11T15:38:36;24.67;;;12.73;;
20497;SDS011;10407;53.238;10.448;2022-12-11T15:41:14;23.00;;;11.30;;
20497;SDS011;10407;53.238;10.448;2022-12-11T15:43:45;21.90;;;11.47;;
20497;SDS011;10407;53.238;10.448;2022-12-11T15:46:13;22.97;;;12.57;;
20497;SDS011;10407;53.238;10.448;2022-12-11T15:48:41;20.87;;;12.67;;
20497;SDS011;10407;53.238;10.448;2022-12-11T15:51:09;26.40;;;13.10;;